createdAt,value
2023-05-08T00:00:35.035Z,981.83
2023-05-08T00:01:34.968Z,981.86
2023-05-08T00:02:34.984Z,981.82
2023-05-08T00:03:34.909Z,981.85
2023-05-08T00:04:34.756Z,981.86
2023-05-08T00:05:34.643Z,981.87
2023-05-08T00:06:34.557Z,981.86
2023-05-08T00:07:34.481Z,981.90
2023-05-08T00:08:34.413Z,981.89
2023-05-08T00:09:34.336Z,981.93
2023-05-08T00:10:34.247Z,981.96
2023-05-08T00:11:34.164Z,981.98
2023-05-08T00:12:34.090Z,981.96
2023-05-08T00:13:34.006Z,982.01
2023-05-08T00:14:33.939Z,981.99
2023-05-08T00:15:33.851Z,982.00
2023-05-08T00:16:33.797Z,982.02
2023-05-08T00:17:33.724Z,982.01
2023-05-08T00:18:33.609Z,982.02
2023-05-08T00:19:33.531Z,981.98
2023-05-08T00:20:33.459Z,982.02
2023-05-08T00:21:33.371Z,982.03
2023-05-08T00:22:33.292Z,982.02
2023-05-08T00:23:33.217Z,982.06
2023-05-08T00:24:33.144Z,982.04
2023-05-08T00:25:33.053Z,982.03
2023-05-08T00:26:32.975Z,982.08
2023-05-08T00:27:32.891Z,982.07
2023-05-08T00:28:32.821Z,982.07
2023-05-08T00:29:32.736Z,982.07
2023-05-08T00:30:32.650Z,982.05
2023-05-08T00:31:32.619Z,982.06
2023-05-08T00:32:32.536Z,982.09
2023-05-08T00:33:32.435Z,982.07
2023-05-08T00:34:32.338Z,982.08
2023-05-08T00:35:32.261Z,982.12
2023-05-08T00:36:32.181Z,982.07
2023-05-08T00:37:32.094Z,982.10
2023-05-08T00:38:32.016Z,982.12
2023-05-08T00:39:31.938Z,982.16
2023-05-08T00:40:31.867Z,982.19
2023-05-08T00:41:31.784Z,982.16
2023-05-08T00:42:31.710Z,982.17
2023-05-08T00:43:31.627Z,982.20
2023-05-08T00:44:31.544Z,982.16
2023-05-08T00:45:31.468Z,982.20
2023-05-08T00:46:31.431Z,982.17
2023-05-08T00:47:31.344Z,982.12
2023-05-08T00:48:31.234Z,982.16
2023-05-08T00:49:31.145Z,982.16
2023-05-08T00:50:31.068Z,982.15
2023-05-08T00:51:30.982Z,982.17
2023-05-08T00:52:30.900Z,982.14
2023-05-08T00:53:30.857Z,982.20
2023-05-08T00:54:30.748Z,982.23
2023-05-08T00:55:30.671Z,982.24
2023-05-08T00:56:30.587Z,982.29
2023-05-08T00:57:30.510Z,982.26
2023-05-08T00:58:30.436Z,982.27
2023-05-08T00:59:30.344Z,982.31
2023-05-08T01:00:30.268Z,982.31
2023-05-08T01:01:30.269Z,982.35
2023-05-08T01:02:30.151Z,982.36
2023-05-08T01:03:30.142Z,982.37
2023-05-08T01:04:29.947Z,982.33
2023-05-08T01:05:29.867Z,982.38
2023-05-08T01:06:29.788Z,982.36
2023-05-08T01:07:29.703Z,982.33
2023-05-08T01:08:29.626Z,982.38
2023-05-08T01:09:29.551Z,982.38
2023-05-08T01:10:29.463Z,982.39
2023-05-08T01:11:29.389Z,982.39
2023-05-08T01:12:29.318Z,982.38
2023-05-08T01:13:29.229Z,982.38
2023-05-08T01:14:29.158Z,982.40
2023-05-08T01:15:29.070Z,982.40
2023-05-08T01:16:29.004Z,982.46
2023-05-08T01:17:28.922Z,982.43
2023-05-08T01:18:28.830Z,982.46
2023-05-08T01:19:28.749Z,982.46
2023-05-08T01:20:28.670Z,982.49
2023-05-08T01:21:28.605Z,982.43
2023-05-08T01:22:28.512Z,982.49
2023-05-08T01:23:28.429Z,982.47
2023-05-08T01:24:28.346Z,982.46
2023-05-08T01:25:28.266Z,982.51
2023-05-08T01:26:28.201Z,982.50
2023-05-08T01:27:28.121Z,982.50
2023-05-08T01:28:28.025Z,982.53
2023-05-08T01:29:27.949Z,982.53
2023-05-08T01:30:27.878Z,982.52
2023-05-08T01:31:27.788Z,982.50
2023-05-08T01:32:27.720Z,982.48
2023-05-08T01:33:27.669Z,982.52
2023-05-08T01:34:27.548Z,982.49
2023-05-08T01:35:27.472Z,982.53
2023-05-08T01:36:27.389Z,982.55
2023-05-08T01:37:27.311Z,982.54
2023-05-08T01:38:27.239Z,982.56
2023-05-08T01:39:27.146Z,982.57
2023-05-08T01:40:27.072Z,982.58
2023-05-08T01:41:26.996Z,982.57
2023-05-08T01:42:26.920Z,982.57
2023-05-08T01:43:26.855Z,982.59
2023-05-08T01:44:26.752Z,982.62
2023-05-08T01:45:26.695Z,982.62
2023-05-08T01:46:26.686Z,982.60
2023-05-08T01:47:26.555Z,982.64
2023-05-08T01:48:26.435Z,982.63
2023-05-08T01:49:26.346Z,982.62
2023-05-08T01:50:26.267Z,982.62
2023-05-08T01:51:26.203Z,982.65
2023-05-08T01:52:26.112Z,982.63
2023-05-08T01:53:26.043Z,982.65
2023-05-08T01:54:25.951Z,982.65
2023-05-08T01:55:25.875Z,982.66
2023-05-08T01:56:25.805Z,982.67
2023-05-08T01:57:25.717Z,982.68
2023-05-08T01:58:25.629Z,982.72
2023-05-08T01:59:25.550Z,982.70
2023-05-08T02:00:25.494Z,982.71
2023-05-08T02:01:25.691Z,982.70
2023-05-08T02:02:25.368Z,982.71
2023-05-08T02:03:25.259Z,982.72
2023-05-08T02:04:25.230Z,982.72
2023-05-08T02:05:25.067Z,982.70
2023-05-08T02:06:24.996Z,982.71
2023-05-08T02:07:24.908Z,982.69
2023-05-08T02:08:24.827Z,982.72
2023-05-08T02:09:24.743Z,982.74
2023-05-08T02:10:24.669Z,982.77
2023-05-08T02:11:24.593Z,982.76
2023-05-08T02:12:24.509Z,982.83
2023-05-08T02:13:24.503Z,982.78
2023-05-08T02:14:24.350Z,982.79
2023-05-08T02:15:24.263Z,982.72
2023-05-08T02:16:24.218Z,982.77
2023-05-08T02:17:24.123Z,982.76
2023-05-08T02:18:24.027Z,982.80
2023-05-08T02:19:23.944Z,982.83
2023-05-08T02:20:23.894Z,982.77
2023-05-08T02:21:23.791Z,982.77
2023-05-08T02:22:23.706Z,982.79
2023-05-08T02:23:23.628Z,982.79
2023-05-08T02:24:23.541Z,982.80
2023-05-08T02:25:23.459Z,982.81
2023-05-08T02:26:23.388Z,982.81
2023-05-08T02:27:23.316Z,982.86
2023-05-08T02:28:23.219Z,982.88
2023-05-08T02:29:23.139Z,982.87
2023-05-08T02:30:23.060Z,982.90
2023-05-08T02:31:23.013Z,982.89
2023-05-08T02:32:23.005Z,982.89
2023-05-08T02:33:22.823Z,982.92
2023-05-08T02:34:22.841Z,982.90
2023-05-08T02:35:22.671Z,982.88
2023-05-08T02:36:22.579Z,982.88
2023-05-08T02:37:22.553Z,982.89
2023-05-08T02:38:22.427Z,982.89
2023-05-08T02:39:22.357Z,982.90
2023-05-08T02:40:22.275Z,982.89
2023-05-08T02:41:22.192Z,982.94
2023-05-08T02:42:22.089Z,982.93
2023-05-08T02:43:22.032Z,982.91
2023-05-08T02:44:21.934Z,982.92
2023-05-08T02:45:21.853Z,982.96
2023-05-08T02:46:21.781Z,982.90
2023-05-08T02:47:21.710Z,982.94
2023-05-08T02:48:21.611Z,982.95
2023-05-08T02:49:21.545Z,982.99
2023-05-08T02:50:21.450Z,982.99
2023-05-08T02:51:21.374Z,982.95
2023-05-08T02:52:21.286Z,983.01
2023-05-08T02:53:21.203Z,982.98
2023-05-08T02:54:21.127Z,983.00
2023-05-08T02:55:21.050Z,983.01
2023-05-08T02:56:20.963Z,983.03
2023-05-08T02:57:20.891Z,983.05
2023-05-08T02:58:20.809Z,983.04
2023-05-08T02:59:20.746Z,983.07
2023-05-08T03:00:20.649Z,983.03
2023-05-08T03:01:20.598Z,983.07
2023-05-08T03:02:20.494Z,983.07
2023-05-08T03:03:20.463Z,983.09
2023-05-08T03:04:20.316Z,983.05
2023-05-08T03:05:20.237Z,983.06
2023-05-08T03:06:20.287Z,983.11
2023-05-08T03:07:20.080Z,983.10
2023-05-08T03:08:19.999Z,983.12
2023-05-08T03:09:19.917Z,983.15
2023-05-08T03:10:19.836Z,983.11
2023-05-08T03:11:19.753Z,983.13
2023-05-08T03:12:19.674Z,983.15
2023-05-08T03:13:19.663Z,983.13
2023-05-08T03:14:19.515Z,983.11
2023-05-08T03:15:19.436Z,983.11
2023-05-08T03:16:19.436Z,983.12
2023-05-08T03:17:19.271Z,983.10
2023-05-08T03:18:19.216Z,983.09
2023-05-08T03:19:20.344Z,983.07
2023-05-08T03:20:19.042Z,983.07
2023-05-08T03:21:18.953Z,983.11
2023-05-08T03:22:18.876Z,983.10
2023-05-08T03:23:18.794Z,983.10
2023-05-08T03:24:18.704Z,983.10
2023-05-08T03:25:18.625Z,983.13
2023-05-08T03:26:18.548Z,983.14
2023-05-08T03:27:18.464Z,983.12
2023-05-08T03:28:18.386Z,983.17
2023-05-08T03:29:18.306Z,983.16
2023-05-08T03:30:18.221Z,983.20
2023-05-08T03:31:18.165Z,983.23
2023-05-08T03:32:18.074Z,983.23
2023-05-08T03:33:17.991Z,983.27
2023-05-08T03:34:17.900Z,983.24
2023-05-08T03:35:17.821Z,983.29
2023-05-08T03:36:17.758Z,983.28
2023-05-08T03:37:17.661Z,983.27
2023-05-08T03:38:17.579Z,983.26
2023-05-08T03:39:17.498Z,983.24
2023-05-08T03:40:17.422Z,983.30
2023-05-08T03:41:17.336Z,983.25
2023-05-08T03:42:17.258Z,983.29
2023-05-08T03:43:17.173Z,983.29
2023-05-08T03:44:17.095Z,983.28
2023-05-08T03:45:17.032Z,983.24
2023-05-08T03:46:16.977Z,983.23
2023-05-08T03:47:16.860Z,983.25
2023-05-08T03:48:16.844Z,983.29
2023-05-08T03:49:16.690Z,983.29
2023-05-08T03:50:16.611Z,983.27
2023-05-08T03:51:16.529Z,983.30
2023-05-08T03:52:16.457Z,983.29
2023-05-08T03:53:16.374Z,983.28
2023-05-08T03:54:16.291Z,983.28
2023-05-08T03:55:16.206Z,983.31
2023-05-08T03:56:16.127Z,983.30
2023-05-08T03:57:16.072Z,983.34
2023-05-08T03:58:15.976Z,983.36
2023-05-08T03:59:15.891Z,983.33
2023-05-08T04:00:15.807Z,983.36
2023-05-08T04:01:15.728Z,983.38
2023-05-08T04:02:15.735Z,983.39
2023-05-08T04:03:15.629Z,983.35
2023-05-08T04:04:15.643Z,983.40
2023-05-08T04:05:15.411Z,983.42
2023-05-08T04:06:15.326Z,983.39
2023-05-08T04:07:15.250Z,983.40
2023-05-08T04:08:15.190Z,983.42
2023-05-08T04:09:15.087Z,983.44
2023-05-08T04:10:15.257Z,983.45
2023-05-08T04:11:14.932Z,983.47
2023-05-08T04:12:14.861Z,983.51
2023-05-08T04:13:14.796Z,983.49
2023-05-08T04:14:14.687Z,983.51
2023-05-08T04:15:14.730Z,983.48
2023-05-08T04:16:14.553Z,983.50
2023-05-08T04:17:14.447Z,983.48
2023-05-08T04:18:14.359Z,983.47
2023-05-08T04:19:14.284Z,983.48
2023-05-08T04:20:14.201Z,983.48
2023-05-08T04:21:14.121Z,983.49
2023-05-08T04:22:14.043Z,983.50
2023-05-08T04:23:13.963Z,983.52
2023-05-08T04:24:13.879Z,983.52
2023-05-08T04:25:14.039Z,983.56
2023-05-08T04:26:14.660Z,983.55
2023-05-08T04:27:13.652Z,983.53
2023-05-08T04:28:13.557Z,983.53
2023-05-08T04:29:13.470Z,983.54
2023-05-08T04:30:13.400Z,983.55
2023-05-08T04:31:13.312Z,983.57
2023-05-08T04:32:13.337Z,983.57
2023-05-08T04:33:13.226Z,983.59
2023-05-08T04:34:13.074Z,983.55
2023-05-08T04:35:13.227Z,983.61
2023-05-08T04:36:12.916Z,983.61
2023-05-08T04:37:12.842Z,983.57
2023-05-08T04:38:12.747Z,983.62
2023-05-08T04:39:12.666Z,983.58
2023-05-08T04:40:12.602Z,983.59
2023-05-08T04:41:12.571Z,983.58
2023-05-08T04:42:12.439Z,983.62
2023-05-08T04:43:12.348Z,983.64
2023-05-08T04:44:12.265Z,983.62
2023-05-08T04:45:12.448Z,983.62
2023-05-08T04:46:12.113Z,983.64
2023-05-08T04:47:12.020Z,983.66
2023-05-08T04:48:11.939Z,983.67
2023-05-08T04:49:11.861Z,983.71
2023-05-08T04:50:11.784Z,983.72
2023-05-08T04:51:11.696Z,983.76
2023-05-08T04:52:11.633Z,983.73
2023-05-08T04:53:11.566Z,983.76
2023-05-08T04:54:11.458Z,983.75
2023-05-08T04:55:11.604Z,983.76
2023-05-08T04:56:11.305Z,983.78
2023-05-08T04:57:11.235Z,983.78
2023-05-08T04:58:11.207Z,983.79
2023-05-08T04:59:11.048Z,983.82
2023-05-08T05:00:10.979Z,983.82
2023-05-08T05:01:10.930Z,983.83
2023-05-08T05:02:10.806Z,983.85
2023-05-08T05:03:10.779Z,983.84
2023-05-08T05:04:10.753Z,983.87
2023-05-08T05:05:10.690Z,983.87
2023-05-08T05:06:10.473Z,983.88
2023-05-08T05:07:10.400Z,983.85
2023-05-08T05:08:10.323Z,983.93
2023-05-08T05:09:10.241Z,983.89
2023-05-08T05:10:10.163Z,983.89
2023-05-08T05:11:10.080Z,983.87
2023-05-08T05:12:10.015Z,983.89
2023-05-08T05:13:09.929Z,983.90
2023-05-08T05:14:09.835Z,983.90
2023-05-08T05:15:09.763Z,983.90
2023-05-08T05:16:09.711Z,983.94
2023-05-08T05:17:09.591Z,983.92
2023-05-08T05:18:09.576Z,983.97
2023-05-08T05:19:09.428Z,983.97
2023-05-08T05:20:09.368Z,983.98
2023-05-08T05:21:09.270Z,984.00
2023-05-08T05:22:09.220Z,984.02
2023-05-08T05:23:09.230Z,984.03
2023-05-08T05:24:09.030Z,984.01
2023-05-08T05:25:08.941Z,983.99
2023-05-08T05:26:08.861Z,984.02
2023-05-08T05:27:08.777Z,984.07
2023-05-08T05:28:08.708Z,984.02
2023-05-08T05:29:08.614Z,984.03
2023-05-08T05:30:08.595Z,984.03
2023-05-08T05:31:08.482Z,984.01
2023-05-08T05:32:08.374Z,984.01
2023-05-08T05:33:08.357Z,983.98
2023-05-08T05:34:08.328Z,983.96
2023-05-08T05:35:08.144Z,984.00
2023-05-08T05:36:08.076Z,983.98
2023-05-08T05:37:07.989Z,983.97
2023-05-08T05:38:07.897Z,984.00
2023-05-08T05:39:07.813Z,983.95
2023-05-08T05:40:07.730Z,984.01
2023-05-08T05:41:07.655Z,984.00
2023-05-08T05:42:07.575Z,983.97
2023-05-08T05:43:07.492Z,984.00
2023-05-08T05:44:07.411Z,984.05
2023-05-08T05:45:07.327Z,984.02
2023-05-08T05:46:07.248Z,984.01
2023-05-08T05:47:07.224Z,984.04
2023-05-08T05:48:07.132Z,983.98
2023-05-08T05:49:07.014Z,984.04
2023-05-08T05:50:06.942Z,984.05
2023-05-08T05:51:06.847Z,984.07
2023-05-08T05:52:06.763Z,984.05
2023-05-08T05:53:06.682Z,984.07
2023-05-08T05:54:06.608Z,984.09
2023-05-08T05:55:06.524Z,984.09
2023-05-08T05:56:06.444Z,984.08
2023-05-08T05:57:06.365Z,984.09
2023-05-08T05:58:06.279Z,984.09
2023-05-08T05:59:06.204Z,984.12
2023-05-08T06:00:06.141Z,984.13
2023-05-08T06:01:06.046Z,984.11
2023-05-08T06:02:06.021Z,984.13
2023-05-08T06:03:05.977Z,984.12
2023-05-08T06:04:05.883Z,984.13
2023-05-08T06:05:05.721Z,984.16
2023-05-08T06:06:05.652Z,984.15
2023-05-08T06:07:05.572Z,984.12
2023-05-08T06:08:05.487Z,984.13
2023-05-08T06:09:05.408Z,984.10
2023-05-08T06:10:05.323Z,984.08
2023-05-08T06:11:05.244Z,984.11
2023-05-08T06:12:05.166Z,984.13
2023-05-08T06:13:05.108Z,984.14
2023-05-08T06:14:05.023Z,984.13
2023-05-08T06:15:04.926Z,984.08
2023-05-08T06:16:04.836Z,984.11
2023-05-08T06:17:04.949Z,984.12
2023-05-08T06:18:04.708Z,984.11
2023-05-08T06:19:04.599Z,984.10
2023-05-08T06:20:04.526Z,984.11
2023-05-08T06:21:04.442Z,984.11
2023-05-08T06:22:04.357Z,984.09
2023-05-08T06:23:04.283Z,984.07
2023-05-08T06:24:04.199Z,984.08
2023-05-08T06:25:04.120Z,984.08
2023-05-08T06:26:04.065Z,984.12
2023-05-08T06:27:03.975Z,984.13
2023-05-08T06:28:03.885Z,984.12
2023-05-08T06:29:03.801Z,984.12
2023-05-08T06:30:03.723Z,984.13
2023-05-08T06:31:03.814Z,984.13
2023-05-08T06:32:03.608Z,984.15
2023-05-08T06:33:03.552Z,984.16
2023-05-08T06:34:03.417Z,984.15
2023-05-08T06:35:03.333Z,984.14
2023-05-08T06:36:03.246Z,984.16
2023-05-08T06:37:03.164Z,984.16
2023-05-08T06:38:03.085Z,984.18
2023-05-08T06:39:03.006Z,984.17
2023-05-08T06:41:02.857Z,984.17
2023-05-08T06:42:02.770Z,984.14
2023-05-08T06:43:02.689Z,984.14
2023-05-08T06:44:02.611Z,984.16
2023-05-08T06:45:02.539Z,984.09
2023-05-08T06:46:02.487Z,984.13
2023-05-08T06:47:02.377Z,984.13
2023-05-08T06:48:02.396Z,984.14
2023-05-08T06:49:02.215Z,984.11
2023-05-08T06:50:02.135Z,984.11
2023-05-08T06:51:02.060Z,984.14
2023-05-08T06:52:01.983Z,984.16
2023-05-08T06:53:01.897Z,984.14
2023-05-08T06:54:01.815Z,984.17
2023-05-08T06:55:01.739Z,984.14
2023-05-08T06:56:01.653Z,984.17
2023-05-08T06:57:01.580Z,984.14
2023-05-08T06:58:01.497Z,984.13
2023-05-08T06:59:08.498Z,984.15
2023-05-08T07:00:01.356Z,984.17
2023-05-08T07:01:01.259Z,984.15
2023-05-08T07:02:01.321Z,984.17
2023-05-08T07:03:01.151Z,984.18
2023-05-08T07:04:01.026Z,984.19
2023-05-08T07:05:00.983Z,984.20
2023-05-08T07:06:00.871Z,984.20
2023-05-08T07:07:00.788Z,984.18
2023-05-08T07:08:00.709Z,984.15
2023-05-08T07:09:00.650Z,984.15
2023-05-08T07:10:00.560Z,984.20
2023-05-08T07:11:00.470Z,984.22
2023-05-08T07:12:00.400Z,984.20
2023-05-08T07:13:00.342Z,984.18
2023-05-08T07:14:00.232Z,984.22
2023-05-08T07:15:03.567Z,984.18
2023-05-08T07:16:00.142Z,984.20
2023-05-08T07:16:59.998Z,984.22
2023-05-08T07:17:59.953Z,984.22
2023-05-08T07:18:59.845Z,984.20
2023-05-08T07:19:59.761Z,984.17
2023-05-08T07:20:59.679Z,984.18
2023-05-08T07:21:59.618Z,984.18
2023-05-08T07:22:59.530Z,984.18
2023-05-08T07:23:59.448Z,984.14
2023-05-08T07:24:59.369Z,984.19
2023-05-08T07:25:59.312Z,984.18
2023-05-08T07:26:59.209Z,984.21
2023-05-08T07:28:01.150Z,984.23
2023-05-08T07:28:59.049Z,984.19
2023-05-08T07:29:58.978Z,984.22
2023-05-08T07:30:58.895Z,984.19
2023-05-08T07:31:58.865Z,984.20
2023-05-08T07:32:58.772Z,984.17
2023-05-08T07:33:58.660Z,984.22
2023-05-08T07:34:58.584Z,984.21
2023-05-08T07:35:58.502Z,984.24
2023-05-08T07:36:58.421Z,984.28
2023-05-08T07:37:58.420Z,984.30
2023-05-08T07:38:58.275Z,984.26
2023-05-08T07:39:58.192Z,984.24
2023-05-08T07:40:58.158Z,984.27
2023-05-08T07:41:58.037Z,984.30
2023-05-08T07:42:57.953Z,984.27
2023-05-08T07:43:57.873Z,984.28
2023-05-08T07:44:57.812Z,984.26
2023-05-08T07:45:57.723Z,984.30
2023-05-08T07:46:57.654Z,984.26
2023-05-08T07:47:57.640Z,984.27
2023-05-08T07:48:57.480Z,984.30
2023-05-08T07:49:57.401Z,984.28
2023-05-08T07:50:57.323Z,984.35
2023-05-08T07:51:57.325Z,984.35
2023-05-08T07:52:57.169Z,984.37
2023-05-08T07:53:57.092Z,984.35
2023-05-08T07:54:57.015Z,984.35
2023-05-08T07:55:56.947Z,984.36
2023-05-08T07:56:56.854Z,984.35
2023-05-08T07:57:56.778Z,984.34
2023-05-08T07:58:56.690Z,984.36
2023-05-08T07:59:56.619Z,984.31
2023-05-08T08:00:56.539Z,984.31
2023-05-08T08:01:56.522Z,984.35
2023-05-08T08:02:56.499Z,984.34
2023-05-08T08:03:56.434Z,984.32
2023-05-08T08:04:56.224Z,984.37
2023-05-08T08:05:56.149Z,984.32
2023-05-08T08:06:56.068Z,984.31
2023-05-08T08:07:55.989Z,984.35
2023-05-08T08:08:55.914Z,984.34
2023-05-08T08:09:55.957Z,984.29
2023-05-08T08:10:55.754Z,984.28
2023-05-08T08:11:55.705Z,984.29
2023-05-08T08:12:55.651Z,984.28
2023-05-08T08:13:55.523Z,984.30
2023-05-08T08:14:55.445Z,984.32
2023-05-08T08:15:55.376Z,984.28
2023-05-08T08:16:55.317Z,984.28
2023-05-08T08:17:55.254Z,984.29
2023-05-08T08:18:55.137Z,984.24
2023-05-08T08:19:55.067Z,984.26
2023-05-08T08:20:54.981Z,984.25
2023-05-08T08:21:54.910Z,984.23
2023-05-08T08:22:54.831Z,984.27
2023-05-08T08:23:54.750Z,984.24
2023-05-08T08:24:55.386Z,984.28
2023-05-08T08:25:54.685Z,984.27
2023-05-08T08:26:54.513Z,984.26
2023-05-08T08:27:54.444Z,984.27
2023-05-08T08:28:54.372Z,984.28
2023-05-08T08:30:04.474Z,984.28
2023-05-08T08:30:54.286Z,984.27
2023-05-08T08:31:54.135Z,984.23
2023-05-08T08:32:54.119Z,984.22
2023-05-08T08:33:53.979Z,984.25
2023-05-08T08:34:53.885Z,984.26
2023-05-08T08:35:53.821Z,984.25
2023-05-08T08:36:53.733Z,984.29
2023-05-08T08:37:53.652Z,984.24
2023-05-08T08:38:53.589Z,984.32
2023-05-08T08:39:53.509Z,984.31
2023-05-08T08:40:53.427Z,984.29
2023-05-08T08:41:53.468Z,984.31
2023-05-08T08:42:53.268Z,984.30
2023-05-08T08:43:53.188Z,984.31
2023-05-08T08:44:53.119Z,984.25
2023-05-08T08:45:53.096Z,984.25
2023-05-08T08:46:53.085Z,984.27
2023-05-08T08:47:52.983Z,984.25
2023-05-08T08:48:52.806Z,984.24
2023-05-08T08:49:52.720Z,984.25
2023-05-08T08:50:52.654Z,984.26
2023-05-08T08:51:52.584Z,984.24
2023-05-08T08:52:52.496Z,984.23
2023-05-08T08:53:52.412Z,984.24
2023-05-08T08:54:52.339Z,984.27
2023-05-08T08:55:52.267Z,984.25
2023-05-08T08:56:52.187Z,984.24
2023-05-08T08:57:52.209Z,984.24
2023-05-08T08:58:52.035Z,984.24
2023-05-08T08:59:51.958Z,984.21
2023-05-08T09:00:51.878Z,984.20
2023-05-08T09:01:51.807Z,984.21
2023-05-08T09:02:51.820Z,984.22
2023-05-08T09:03:51.744Z,984.21
2023-05-08T09:04:51.589Z,984.23
2023-05-08T09:05:51.491Z,984.19
2023-05-08T09:06:51.417Z,984.21
2023-05-08T09:07:51.340Z,984.23
2023-05-08T09:08:51.276Z,984.24
2023-05-08T09:09:51.179Z,984.22
2023-05-08T09:10:51.105Z,984.23
2023-05-08T09:11:51.027Z,984.24
2023-05-08T09:12:50.960Z,984.26
2023-05-08T09:13:50.977Z,984.25
2023-05-08T09:14:50.790Z,984.24
2023-05-08T09:15:50.788Z,984.26
2023-05-08T09:16:50.740Z,984.28
2023-05-08T09:17:50.645Z,984.28
2023-05-08T09:18:50.488Z,984.29
2023-05-08T09:19:50.414Z,984.26
2023-05-08T09:20:50.337Z,984.26
2023-05-08T09:21:50.257Z,984.23
2023-05-08T09:22:50.176Z,984.25
2023-05-08T09:23:50.102Z,984.20
2023-05-08T09:24:50.027Z,984.21
2023-05-08T09:25:49.953Z,984.24
2023-05-08T09:26:49.873Z,984.21
2023-05-08T09:27:49.797Z,984.20
2023-05-08T09:28:49.714Z,984.20
2023-05-08T09:29:49.742Z,984.20
2023-05-08T09:30:49.568Z,984.18
2023-05-08T09:31:49.531Z,984.22
2023-05-08T09:32:49.513Z,984.23
2023-05-08T09:33:49.333Z,984.24
2023-05-08T09:34:49.260Z,984.22
2023-05-08T09:35:49.181Z,984.23
2023-05-08T09:36:49.105Z,984.22
2023-05-08T09:37:49.026Z,984.22
2023-05-08T09:38:48.957Z,984.19
2023-05-08T09:39:48.882Z,984.21
2023-05-08T09:40:48.794Z,984.23
2023-05-08T09:41:48.718Z,984.21
2023-05-08T09:42:48.656Z,984.21
2023-05-08T09:43:48.567Z,984.21
2023-05-08T09:44:48.487Z,984.21
2023-05-08T09:45:48.546Z,984.19
2023-05-08T09:46:48.341Z,984.17
2023-05-08T09:47:48.323Z,984.21
2023-05-08T09:48:48.182Z,984.20
2023-05-08T09:49:48.110Z,984.19
2023-05-08T09:50:48.034Z,984.22
2023-05-08T09:51:47.969Z,984.23
2023-05-08T09:52:47.878Z,984.20
2023-05-08T09:53:47.817Z,984.21
2023-05-08T09:54:47.729Z,984.20
2023-05-08T09:55:47.680Z,984.22
2023-05-08T09:56:47.585Z,984.21
2023-05-08T09:57:47.501Z,984.19
2023-05-08T09:58:47.444Z,984.23
2023-05-08T09:59:47.346Z,984.18
2023-05-08T10:00:47.300Z,984.22
2023-05-08T10:01:47.291Z,984.18
2023-05-08T10:02:47.197Z,984.22
2023-05-08T10:03:47.121Z,984.22
2023-05-08T10:04:47.084Z,984.22
2023-05-08T10:05:46.886Z,984.22
2023-05-08T10:06:46.816Z,984.20
2023-05-08T10:07:46.737Z,984.21
2023-05-08T10:08:46.660Z,984.22
2023-05-08T10:09:50.761Z,984.22
2023-05-08T10:10:46.526Z,984.23
2023-05-08T10:11:46.437Z,984.23
2023-05-08T10:12:46.381Z,984.20
2023-05-08T10:13:46.309Z,984.27
2023-05-08T10:14:46.717Z,984.28
2023-05-08T10:15:46.130Z,984.23
2023-05-08T10:16:46.095Z,984.18
2023-05-08T10:17:46.134Z,984.21
2023-05-08T10:18:45.902Z,984.18
2023-05-08T10:19:45.822Z,984.17
2023-05-08T10:20:45.750Z,984.14
2023-05-08T10:21:45.676Z,984.15
2023-05-08T10:22:45.595Z,984.11
2023-05-08T10:23:45.515Z,984.10
2023-05-08T10:24:45.452Z,984.13
2023-05-08T10:25:45.367Z,984.08
2023-05-08T10:26:57.066Z,984.09
2023-05-08T10:27:45.221Z,984.08
2023-05-08T10:28:45.147Z,984.07
2023-05-08T10:29:45.069Z,984.06
2023-05-08T10:30:45.030Z,984.06
2023-05-08T10:31:44.968Z,984.07
2023-05-08T10:32:44.873Z,984.05
2023-05-08T10:33:44.867Z,984.03
2023-05-08T10:34:44.693Z,984.10
2023-05-08T10:35:44.616Z,984.07
2023-05-08T10:36:44.541Z,984.04
2023-05-08T10:37:44.457Z,984.06
2023-05-08T10:38:44.385Z,984.04
2023-05-08T10:39:44.316Z,984.08
2023-05-08T10:40:44.229Z,984.07
2023-05-08T10:41:44.166Z,984.06
2023-05-08T10:42:44.091Z,984.06
2023-05-08T10:43:44.013Z,984.05
2023-05-08T10:44:43.933Z,984.01
2023-05-08T10:45:43.857Z,984.01
2023-05-08T10:46:43.861Z,984.01
2023-05-08T10:47:43.737Z,984.02
2023-05-08T10:48:43.633Z,983.98
2023-05-08T10:49:43.557Z,983.99
2023-05-08T10:50:43.504Z,983.98
2023-05-08T10:51:43.415Z,983.93
2023-05-08T10:52:43.340Z,983.97
2023-05-08T10:53:43.257Z,983.93
2023-05-08T10:54:43.186Z,983.94
2023-05-08T10:55:43.108Z,983.89
2023-05-08T10:56:43.044Z,983.88
2023-05-08T10:57:42.968Z,983.87
2023-05-08T10:58:42.884Z,983.93
2023-05-08T10:59:42.814Z,983.92
2023-05-08T11:00:42.735Z,983.92
2023-05-08T11:01:42.716Z,983.87
2023-05-08T11:02:42.625Z,983.89
2023-05-08T11:03:42.665Z,983.86
2023-05-08T11:04:42.523Z,983.83
2023-05-08T11:05:42.365Z,983.78
2023-05-08T11:06:42.285Z,983.82
2023-05-08T11:07:42.215Z,983.81
2023-05-08T11:08:42.137Z,983.77
2023-05-08T11:09:42.065Z,983.77
2023-05-08T11:10:41.990Z,983.80
2023-05-08T11:11:41.923Z,983.75
2023-05-08T11:12:41.902Z,983.78
2023-05-08T11:13:41.768Z,983.80
2023-05-08T11:14:41.696Z,983.78
2023-05-08T11:15:41.654Z,983.81
2023-05-08T11:16:41.613Z,983.77
2023-05-08T11:17:41.509Z,983.76
2023-05-08T11:18:49.493Z,983.76
2023-05-08T11:19:41.322Z,983.80
2023-05-08T11:20:41.248Z,983.82
2023-05-08T11:21:41.178Z,983.78
2023-05-08T11:22:41.101Z,983.76
2023-05-08T11:23:41.026Z,983.76
2023-05-08T11:24:40.955Z,983.79
2023-05-08T11:25:40.876Z,983.81
2023-05-08T11:26:40.992Z,983.78
2023-05-08T11:27:40.735Z,983.80
2023-05-08T11:28:40.655Z,983.74
2023-05-08T11:29:40.585Z,983.75
2023-05-08T11:30:40.525Z,983.73
2023-05-08T11:31:40.528Z,983.74
2023-05-08T11:32:40.432Z,983.70
2023-05-08T11:33:40.281Z,983.71
2023-05-08T11:34:40.239Z,983.74
2023-05-08T11:35:40.135Z,983.70
2023-05-08T11:36:40.061Z,983.68
2023-05-08T11:37:39.996Z,983.65
2023-05-08T11:38:39.913Z,983.61
2023-05-08T11:39:39.831Z,983.63
2023-05-08T11:40:39.770Z,983.64
2023-05-08T11:41:39.704Z,983.62
2023-05-08T11:42:39.617Z,983.63
2023-05-08T11:43:39.547Z,983.62
2023-05-08T11:44:39.460Z,983.57
2023-05-08T11:45:39.394Z,983.57
2023-05-08T11:46:39.371Z,983.55
2023-05-08T11:47:39.371Z,983.60
2023-05-08T11:48:39.164Z,983.57
2023-05-08T11:49:39.098Z,983.53
2023-05-08T11:50:39.034Z,983.57
2023-05-08T11:51:38.970Z,983.56
2023-05-08T11:52:38.874Z,983.56
2023-05-08T11:53:38.818Z,983.55
2023-05-08T11:54:38.726Z,983.57
2023-05-08T11:55:38.648Z,983.56
2023-05-08T11:56:38.575Z,983.56
2023-05-08T11:57:38.500Z,983.56
2023-05-08T11:58:38.419Z,983.55
2023-05-08T11:59:38.342Z,983.57
2023-05-08T12:00:38.279Z,983.55
2023-05-08T12:01:38.203Z,983.59
2023-05-08T12:02:38.308Z,983.56
2023-05-08T12:03:38.268Z,983.58
2023-05-08T12:04:38.025Z,983.57
2023-05-08T12:05:37.898Z,983.57
2023-05-08T12:06:37.824Z,983.61
2023-05-08T12:07:37.740Z,983.58
2023-05-08T12:08:37.676Z,983.60
2023-05-08T12:09:37.599Z,983.60
2023-05-08T12:10:37.519Z,983.56
2023-05-08T12:11:37.449Z,983.59
2023-05-08T12:12:37.374Z,983.65
2023-05-08T12:13:37.364Z,983.65
2023-05-08T12:14:37.219Z,983.61
2023-05-08T12:15:37.142Z,983.62
2023-05-08T12:16:37.109Z,983.69
2023-05-08T12:17:37.021Z,983.64
2023-05-08T12:18:38.021Z,983.63
2023-05-08T12:19:36.865Z,983.67
2023-05-08T12:20:36.770Z,983.67
2023-05-08T12:21:36.699Z,983.66
2023-05-08T12:22:36.628Z,983.67
2023-05-08T12:23:36.551Z,983.66
2023-05-08T12:24:36.472Z,983.65
2023-05-08T12:25:36.394Z,983.65
2023-05-08T12:26:36.329Z,983.68
2023-05-08T12:27:36.255Z,983.66
2023-05-08T12:28:36.172Z,983.69